sensor_id;sensor_type;location;lat;lon;timestamp;temperature;humidity
24207;DHT22;12351;52.284;9.160;2023-06-26T00:00:51;24.90;1.00
24207;DHT22;12351;52.284;9.160;2023-06-26T00:03:39;24.90;1.00
24207;DHT22;12351;52.284;9.160;2023-06-26T00:06:25;24.80;1.00
24207;DHT22;12351;52.284;9.160;2023-06-26T00:09:13;24.80;1.00
24207;DHT22;12351;52.284;9.160;2023-06-26T00:12:01;24.70;1.00
24207;DHT22;12351;52.284;9.160;2023-06-26T00:14:48;24.70;1.00
24207;DHT22;12351;52.284;9.160;2023-06-26T00:17:37;24.60;1.00
24207;DHT22;12351;52.284;9.160;2023-06-26T00:20:24;24.60;1.00
24207;DHT22;12351;52.284;9.160;2023-06-26T00:23:12;24.70;1.00
24207;DHT22;12351;52.284;9.160;2023-06-26T00:26:04;24.70;1.00
24207;DHT22;12351;52.284;9.160;2023-06-26T00:28:50;24.60;1.00
24207;DHT22;12351;52.284;9.160;2023-06-26T00:31:37;24.60;1.00
24207;DHT22;12351;52.284;9.160;2023-06-26T00:34:26;24.60;1.00
24207;DHT22;12351;52.284;9.160;2023-06-26T00:37:14;24.60;1.00
24207;DHT22;12351;52.284;9.160;2023-06-26T00:40:02;24.50;1.00
24207;DHT22;12351;52.284;9.160;2023-06-26T00:42:50;24.50;1.00
24207;DHT22;12351;52.284;9.160;2023-06-26T00:45:38;24.50;1.00
24207;DHT22;12351;52.284;9.160;2023-06-26T00:48:24;24.50;1.00
24207;DHT22;12351;52.284;9.160;2023-06-26T00:51:13;24.50;1.00
24207;DHT22;12351;52.284;9.160;2023-06-26T00:54:00;24.50;1.00
24207;DHT22;12351;52.284;9.160;2023-06-26T00:56:48;24.40;1.00
24207;DHT22;12351;52.284;9.160;2023-06-26T00:59:36;24.50;1.00
24207;DHT22;12351;52.284;9.160;2023-06-26T01:02:24;24.30;1.00
24207;DHT22;12351;52.284;9.160;2023-06-26T01:05:13;24.30;1.00
24207;DHT22;12351;52.284;9.160;2023-06-26T01:08:03;24.20;1.00
24207;DHT22;12351;52.284;9.160;2023-06-26T01:10:50;24.10;1.00
24207;DHT22;12351;52.284;9.160;2023-06-26T01:13:39;24.00;1.00
24207;DHT22;12351;52.284;9.160;2023-06-26T01:16:28;24.00;1.00
24207;DHT22;12351;52.284;9.160;2023-06-26T01:19:20;23.90;1.00
24207;DHT22;12351;52.284;9.160;2023-06-26T01:24:54;23.80;1.00
24207;DHT22;12351;52.284;9.160;2023-06-26T01:27:37;23.70;1.00
24207;DHT22;12351;52.284;9.160;2023-06-26T01:30:25;23.60;1.00
24207;DHT22;12351;52.284;9.160;2023-06-26T01:33:15;23.60;1.00
24207;DHT22;12351;52.284;9.160;2023-06-26T01:36:03;23.50;1.00
24207;DHT22;12351;52.284;9.160;2023-06-26T01:38:50;23.50;1.00
24207;DHT22;12351;52.284;9.160;2023-06-26T01:41:38;23.50;1.00
24207;DHT22;12351;52.284;9.160;2023-06-26T01:47:18;23.50;1.00
24207;DHT22;12351;52.284;9.160;2023-06-26T01:50:10;23.40;1.00
24207;DHT22;12351;52.284;9.160;2023-06-26T01:53:02;23.30;1.00
24207;DHT22;12351;52.284;9.160;2023-06-26T01:58:37;23.30;1.00
24207;DHT22;12351;52.284;9.160;2023-06-26T02:01:27;23.20;1.00
24207;DHT22;12351;52.284;9.160;2023-06-26T02:04:13;23.20;1.00
24207;DHT22;12351;52.284;9.160;2023-06-26T02:07:01;23.20;1.00
24207;DHT22;12351;52.284;9.160;2023-06-26T02:09:49;23.10;1.00
24207;DHT22;12351;52.284;9.160;2023-06-26T02:12:37;23.10;1.00
24207;DHT22;12351;52.284;9.160;2023-06-26T02:15:25;23.00;1.00
24207;DHT22;12351;52.284;9.160;2023-06-26T02:18:11;23.10;1.00
24207;DHT22;12351;52.284;9.160;2023-06-26T02:20:58;23.00;1.00
24207;DHT22;12351;52.284;9.160;2023-06-26T02:23:48;22.90;1.00
24207;DHT22;12351;52.284;9.160;2023-06-26T02:26:34;22.90;1.00
24207;DHT22;12351;52.284;9.160;2023-06-26T02:29:22;22.90;1.00
24207;DHT22;12351;52.284;9.160;2023-06-26T02:32:09;22.90;1.00
24207;DHT22;12351;52.284;9.160;2023-06-26T02:34:56;22.90;1.00
24207;DHT22;12351;52.284;9.160;2023-06-26T02:37:44;22.90;1.00
24207;DHT22;12351;52.284;9.160;2023-06-26T02:40:31;22.80;1.00
24207;DHT22;12351;52.284;9.160;2023-06-26T02:43:19;22.80;1.00
24207;DHT22;12351;52.284;9.160;2023-06-26T02:46:06;22.80;1.00
24207;DHT22;12351;52.284;9.160;2023-06-26T02:48:55;22.70;1.00
24207;DHT22;12351;52.284;9.160;2023-06-26T02:51:43;22.70;1.00
24207;DHT22;12351;52.284;9.160;2023-06-26T02:54:29;22.70;1.00
24207;DHT22;12351;52.284;9.160;2023-06-26T02:57:17;22.70;1.00
24207;DHT22;12351;52.284;9.160;2023-06-26T03:00:04;22.60;1.00
24207;DHT22;12351;52.284;9.160;2023-06-26T03:02:52;22.60;1.00
24207;DHT22;12351;52.284;9.160;2023-06-26T03:05:39;22.60;1.00
24207;DHT22;12351;52.284;9.160;2023-06-26T03:08:26;22.50;1.00
24207;DHT22;12351;52.284;9.160;2023-06-26T03:11:14;22.60;1.00
24207;DHT22;12351;52.284;9.160;2023-06-26T03:14:02;22.50;1.00
24207;DHT22;12351;52.284;9.160;2023-06-26T03:16:49;22.50;1.00
24207;DHT22;12351;52.284;9.160;2023-06-26T03:19:38;22.30;1.00
24207;DHT22;12351;52.284;9.160;2023-06-26T03:22:25;22.40;1.00
24207;DHT22;12351;52.284;9.160;2023-06-26T03:25:12;22.30;1.00
24207;DHT22;12351;52.284;9.160;2023-06-26T03:27:59;22.30;1.00
24207;DHT22;12351;52.284;9.160;2023-06-26T03:30:47;22.30;1.00
24207;DHT22;12351;52.284;9.160;2023-06-26T03:33:36;22.40;1.00
24207;DHT22;12351;52.284;9.160;2023-06-26T03:36:23;22.50;1.00
24207;DHT22;12351;52.284;9.160;2023-06-26T03:39:10;22.60;1.00
24207;DHT22;12351;52.284;9.160;2023-06-26T03:41:58;23.10;1.00
24207;DHT22;12351;52.284;9.160;2023-06-26T03:44:46;23.10;1.00
24207;DHT22;12351;52.284;9.160;2023-06-26T03:47:34;22.80;1.00
24207;DHT22;12351;52.284;9.160;2023-06-26T03:50:21;22.70;1.00
24207;DHT22;12351;52.284;9.160;2023-06-26T03:53:09;22.70;1.00
24207;DHT22;12351;52.284;9.160;2023-06-26T03:55:58;22.70;1.00
24207;DHT22;12351;52.284;9.160;2023-06-26T03:58:45;22.70;1.00
24207;DHT22;12351;52.284;9.160;2023-06-26T04:01:33;22.60;1.00
24207;DHT22;12351;52.284;9.160;2023-06-26T04:04:19;22.60;1.00
24207;DHT22;12351;52.284;9.160;2023-06-26T04:07:07;22.50;1.00
24207;DHT22;12351;52.284;9.160;2023-06-26T04:09:54;22.50;1.00
24207;DHT22;12351;52.284;9.160;2023-06-26T04:12:41;22.60;1.00
24207;DHT22;12351;52.284;9.160;2023-06-26T04:15:29;22.60;1.00
24207;DHT22;12351;52.284;9.160;2023-06-26T04:18:16;22.60;1.00
24207;DHT22;12351;52.284;9.160;2023-06-26T04:23:58;22.70;1.00
24207;DHT22;12351;52.284;9.160;2023-06-26T04:26:44;22.70;1.00
24207;DHT22;12351;52.284;9.160;2023-06-26T04:29:32;22.80;1.00
24207;DHT22;12351;52.284;9.160;2023-06-26T04:32:19;22.80;1.00
24207;DHT22;12351;52.284;9.160;2023-06-26T04:35:07;22.80;1.00
24207;DHT22;12351;52.284;9.160;2023-06-26T04:37:56;22.90;1.00
24207;DHT22;12351;52.284;9.160;2023-06-26T04:40:43;22.90;1.00
24207;DHT22;12351;52.284;9.160;2023-06-26T04:43:31;22.80;1.00
24207;DHT22;12351;52.284;9.160;2023-06-26T04:46:17;22.90;1.00
24207;DHT22;12351;52.284;9.160;2023-06-26T04:49:08;23.00;1.00
24207;DHT22;12351;52.284;9.160;2023-06-26T04:51:56;23.00;1.00
24207;DHT22;12351;52.284;9.160;2023-06-26T04:54:45;23.10;1.00
24207;DHT22;12351;52.284;9.160;2023-06-26T04:57:32;23.10;1.00
24207;DHT22;12351;52.284;9.160;2023-06-26T05:00:19;23.20;1.00
24207;DHT22;12351;52.284;9.160;2023-06-26T05:03:08;23.20;1.00
24207;DHT22;12351;52.284;9.160;2023-06-26T05:05:56;23.30;1.00
24207;DHT22;12351;52.284;9.160;2023-06-26T05:08:44;23.30;1.00
24207;DHT22;12351;52.284;9.160;2023-06-26T05:11:31;23.30;1.00
24207;DHT22;12351;52.284;9.160;2023-06-26T05:14:18;23.40;1.00
24207;DHT22;12351;52.284;9.160;2023-06-26T05:17:06;23.50;1.00
24207;DHT22;12351;52.284;9.160;2023-06-26T05:19:54;23.50;1.00
24207;DHT22;12351;52.284;9.160;2023-06-26T05:22:42;23.60;1.00
24207;DHT22;12351;52.284;9.160;2023-06-26T05:25:30;23.70;1.00
24207;DHT22;12351;52.284;9.160;2023-06-26T05:28:17;23.70;1.00
24207;DHT22;12351;52.284;9.160;2023-06-26T05:31:05;23.90;1.00
24207;DHT22;12351;52.284;9.160;2023-06-26T05:33:55;23.90;1.00
24207;DHT22;12351;52.284;9.160;2023-06-26T05:36:42;23.90;1.00
24207;DHT22;12351;52.284;9.160;2023-06-26T05:39:30;23.90;1.00
24207;DHT22;12351;52.284;9.160;2023-06-26T05:42:20;24.00;1.00
24207;DHT22;12351;52.284;9.160;2023-06-26T05:45:07;24.10;1.00
24207;DHT22;12351;52.284;9.160;2023-06-26T05:47:55;24.20;1.00
24207;DHT22;12351;52.284;9.160;2023-06-26T05:50:42;24.20;1.00
24207;DHT22;12351;52.284;9.160;2023-06-26T05:53:31;24.30;1.00
24207;DHT22;12351;52.284;9.160;2023-06-26T05:56:18;24.30;1.00
24207;DHT22;12351;52.284;9.160;2023-06-26T05:59:07;24.30;1.00
24207;DHT22;12351;52.284;9.160;2023-06-26T06:01:55;24.40;1.00
24207;DHT22;12351;52.284;9.160;2023-06-26T06:04:42;24.50;1.00
24207;DHT22;12351;52.284;9.160;2023-06-26T06:07:29;24.50;1.00
24207;DHT22;12351;52.284;9.160;2023-06-26T06:10:16;24.50;1.00
24207;DHT22;12351;52.284;9.160;2023-06-26T06:13:04;24.60;1.00
24207;DHT22;12351;52.284;9.160;2023-06-26T06:15:52;24.70;1.00
24207;DHT22;12351;52.284;9.160;2023-06-26T06:18:39;24.80;1.00
24207;DHT22;12351;52.284;9.160;2023-06-26T06:21:26;24.70;1.00
24207;DHT22;12351;52.284;9.160;2023-06-26T06:24:13;24.80;1.00
24207;DHT22;12351;52.284;9.160;2023-06-26T06:27:01;24.90;1.00
24207;DHT22;12351;52.284;9.160;2023-06-26T06:29:48;24.90;1.00
24207;DHT22;12351;52.284;9.160;2023-06-26T06:32:35;25.00;1.00
24207;DHT22;12351;52.284;9.160;2023-06-26T06:35:23;25.00;1.00
24207;DHT22;12351;52.284;9.160;2023-06-26T06:38:10;25.20;1.00
24207;DHT22;12351;52.284;9.160;2023-06-26T06:40:59;25.20;1.00
24207;DHT22;12351;52.284;9.160;2023-06-26T06:43:47;25.20;1.00
24207;DHT22;12351;52.284;9.160;2023-06-26T06:46:34;25.30;1.00
24207;DHT22;12351;52.284;9.160;2023-06-26T06:49:22;25.30;1.00
24207;DHT22;12351;52.284;9.160;2023-06-26T06:52:09;25.30;1.00
24207;DHT22;12351;52.284;9.160;2023-06-26T06:54:59;25.30;1.00
24207;DHT22;12351;52.284;9.160;2023-06-26T06:57:46;25.30;1.00
24207;DHT22;12351;52.284;9.160;2023-06-26T07:00:33;25.40;1.00
24207;DHT22;12351;52.284;9.160;2023-06-26T07:03:21;25.50;1.00
24207;DHT22;12351;52.284;9.160;2023-06-26T07:06:08;25.60;1.00
24207;DHT22;12351;52.284;9.160;2023-06-26T07:08:54;25.60;1.00
24207;DHT22;12351;52.284;9.160;2023-06-26T07:11:42;25.70;1.00
24207;DHT22;12351;52.284;9.160;2023-06-26T07:14:28;25.70;1.00
24207;DHT22;12351;52.284;9.160;2023-06-26T07:17:16;25.80;1.00
24207;DHT22;12351;52.284;9.160;2023-06-26T07:20:04;25.70;1.00
24207;DHT22;12351;52.284;9.160;2023-06-26T07:22:52;25.80;1.00
24207;DHT22;12351;52.284;9.160;2023-06-26T07:25:40;25.90;1.00
24207;DHT22;12351;52.284;9.160;2023-06-26T07:28:27;26.00;1.00
24207;DHT22;12351;52.284;9.160;2023-06-26T07:31:14;26.10;1.00
24207;DHT22;12351;52.284;9.160;2023-06-26T07:34:03;26.10;1.00
24207;DHT22;12351;52.284;9.160;2023-06-26T07:36:50;26.20;1.00
24207;DHT22;12351;52.284;9.160;2023-06-26T07:39:38;26.30;1.00
24207;DHT22;12351;52.284;9.160;2023-06-26T07:42:25;26.30;1.00
24207;DHT22;12351;52.284;9.160;2023-06-26T07:45:13;26.20;1.00
24207;DHT22;12351;52.284;9.160;2023-06-26T07:48:00;26.30;1.00
24207;DHT22;12351;52.284;9.160;2023-06-26T07:50:47;26.40;1.00
24207;DHT22;12351;52.284;9.160;2023-06-26T07:53:34;26.40;1.00
24207;DHT22;12351;52.284;9.160;2023-06-26T07:56:21;26.40;1.00
24207;DHT22;12351;52.284;9.160;2023-06-26T07:59:09;26.50;1.00
24207;DHT22;12351;52.284;9.160;2023-06-26T08:01:58;26.60;1.00
24207;DHT22;12351;52.284;9.160;2023-06-26T08:04:47;26.50;1.00
24207;DHT22;12351;52.284;9.160;2023-06-26T08:07:34;26.60;1.00
24207;DHT22;12351;52.284;9.160;2023-06-26T08:10:21;26.60;1.00
24207;DHT22;12351;52.284;9.160;2023-06-26T08:13:08;26.40;1.00
24207;DHT22;12351;52.284;9.160;2023-06-26T08:15:56;26.30;1.00
24207;DHT22;12351;52.284;9.160;2023-06-26T08:18:43;26.40;1.00
24207;DHT22;12351;52.284;9.160;2023-06-26T08:21:31;26.50;1.00
24207;DHT22;12351;52.284;9.160;2023-06-26T08:24:18;26.30;1.00
24207;DHT22;12351;52.284;9.160;2023-06-26T08:27:05;26.50;1.00
24207;DHT22;12351;52.284;9.160;2023-06-26T08:29:54;26.30;1.00
24207;DHT22;12351;52.284;9.160;2023-06-26T08:32:40;26.30;1.00
24207;DHT22;12351;52.284;9.160;2023-06-26T08:35:28;26.30;1.00
24207;DHT22;12351;52.284;9.160;2023-06-26T08:38:15;26.40;1.00
24207;DHT22;12351;52.284;9.160;2023-06-26T08:41:02;26.30;1.00
24207;DHT22;12351;52.284;9.160;2023-06-26T08:43:50;26.20;1.00
24207;DHT22;12351;52.284;9.160;2023-06-26T08:46:38;26.10;1.00
24207;DHT22;12351;52.284;9.160;2023-06-26T08:49:31;26.10;1.00
24207;DHT22;12351;52.284;9.160;2023-06-26T08:52:19;26.10;1.00
24207;DHT22;12351;52.284;9.160;2023-06-26T08:55:09;25.90;1.00
24207;DHT22;12351;52.284;9.160;2023-06-26T08:57:56;26.00;1.00
24207;DHT22;12351;52.284;9.160;2023-06-26T09:00:44;25.90;1.00
24207;DHT22;12351;52.284;9.160;2023-06-26T09:03:34;26.00;1.00
24207;DHT22;12351;52.284;9.160;2023-06-26T09:06:20;26.10;1.00
24207;DHT22;12351;52.284;9.160;2023-06-26T09:09:08;26.10;1.00
24207;DHT22;12351;52.284;9.160;2023-06-26T09:11:56;26.00;1.00
24207;DHT22;12351;52.284;9.160;2023-06-26T09:14:44;26.00;1.00
24207;DHT22;12351;52.284;9.160;2023-06-26T09:17:38;26.10;1.00
24207;DHT22;12351;52.284;9.160;2023-06-26T09:20:21;26.00;1.00
24207;DHT22;12351;52.284;9.160;2023-06-26T09:23:09;26.00;1.00
24207;DHT22;12351;52.284;9.160;2023-06-26T09:25:58;26.00;1.00
24207;DHT22;12351;52.284;9.160;2023-06-26T09:28:48;25.90;1.00
24207;DHT22;12351;52.284;9.160;2023-06-26T09:31:38;25.80;1.00
24207;DHT22;12351;52.284;9.160;2023-06-26T09:37:15;25.80;1.00
24207;DHT22;12351;52.284;9.160;2023-06-26T09:40:04;25.70;7.10
24207;DHT22;12351;52.284;9.160;2023-06-26T09:42:51;25.50;99.90
24207;DHT22;12351;52.284;9.160;2023-06-26T09:45:40;25.50;1.00
24207;DHT22;12351;52.284;9.160;2023-06-26T09:48:28;25.40;1.00
24207;DHT22;12351;52.284;9.160;2023-06-26T09:51:17;25.30;99.90
24207;DHT22;12351;52.284;9.160;2023-06-26T09:54:06;25.20;1.00
24207;DHT22;12351;52.284;9.160;2023-06-26T09:56:55;25.20;18.00
24207;DHT22;12351;52.284;9.160;2023-06-26T09:59:44;25.20;99.90
24207;DHT22;12351;52.284;9.160;2023-06-26T10:02:31;25.20;1.00
24207;DHT22;12351;52.284;9.160;2023-06-26T10:05:19;25.20;99.90
24207;DHT22;12351;52.284;9.160;2023-06-26T10:08:06;25.30;99.90
24207;DHT22;12351;52.284;9.160;2023-06-26T10:10:53;25.20;1.00
24207;DHT22;12351;52.284;9.160;2023-06-26T10:13:43;25.20;1.00
24207;DHT22;12351;52.284;9.160;2023-06-26T10:16:32;25.10;1.00
24207;DHT22;12351;52.284;9.160;2023-06-26T10:19:22;25.20;1.00
24207;DHT22;12351;52.284;9.160;2023-06-26T10:22:14;25.20;1.00
24207;DHT22;12351;52.284;9.160;2023-06-26T10:25:03;25.10;1.00
24207;DHT22;12351;52.284;9.160;2023-06-26T10:27:55;25.00;1.00
24207;DHT22;12351;52.284;9.160;2023-06-26T10:30:43;24.90;99.90
24207;DHT22;12351;52.284;9.160;2023-06-26T10:33:32;24.90;99.90
24207;DHT22;12351;52.284;9.160;2023-06-26T10:39:10;24.90;1.00
24207;DHT22;12351;52.284;9.160;2023-06-26T10:42:08;24.90;1.00
24207;DHT22;12351;52.284;9.160;2023-06-26T10:44:48;24.70;99.90
24207;DHT22;12351;52.284;9.160;2023-06-26T10:47:36;24.80;1.00
24207;DHT22;12351;52.284;9.160;2023-06-26T10:58:42;24.70;1.00
24207;DHT22;12351;52.284;9.160;2023-06-26T11:01:32;24.70;1.00
24207;DHT22;12351;52.284;9.160;2023-06-26T11:10:07;24.60;77.50
24207;DHT22;12351;52.284;9.160;2023-06-26T11:12:50;24.50;1.00
24207;DHT22;12351;52.284;9.160;2023-06-26T11:15:42;24.30;1.00
24207;DHT22;12351;52.284;9.160;2023-06-26T11:18:28;24.30;1.00
24207;DHT22;12351;52.284;9.160;2023-06-26T11:21:18;24.30;1.00
24207;DHT22;12351;52.284;9.160;2023-06-26T11:24:08;24.10;99.90
24207;DHT22;12351;52.284;9.160;2023-06-26T11:26:55;24.20;1.00
24207;DHT22;12351;52.284;9.160;2023-06-26T11:29:47;24.20;2.80
24207;DHT22;12351;52.284;9.160;2023-06-26T11:32:36;24.30;99.90
24207;DHT22;12351;52.284;9.160;2023-06-26T11:35:25;24.30;99.90
24207;DHT22;12351;52.284;9.160;2023-06-26T11:38:13;24.50;99.90
24207;DHT22;12351;52.284;9.160;2023-06-26T11:41:01;24.50;99.90
24207;DHT22;12351;52.284;9.160;2023-06-26T11:43:50;24.50;1.00
24207;DHT22;12351;52.284;9.160;2023-06-26T11:46:38;24.40;1.00
24207;DHT22;12351;52.284;9.160;2023-06-26T11:49:25;24.10;99.90
24207;DHT22;12351;52.284;9.160;2023-06-26T11:52:14;24.20;99.90
24207;DHT22;12351;52.284;9.160;2023-06-26T11:55:02;24.40;99.90
24207;DHT22;12351;52.284;9.160;2023-06-26T12:00:41;24.70;99.90
24207;DHT22;12351;52.284;9.160;2023-06-26T12:03:29;24.80;99.90
24207;DHT22;12351;52.284;9.160;2023-06-26T12:06:18;24.60;1.00
24207;DHT22;12351;52.284;9.160;2023-06-26T12:09:08;24.70;1.00
24207;DHT22;12351;52.284;9.160;2023-06-26T12:11:57;24.80;1.00
24207;DHT22;12351;52.284;9.160;2023-06-26T12:14:45;25.00;40.80
24207;DHT22;12351;52.284;9.160;2023-06-26T12:17:33;25.20;1.00
24207;DHT22;12351;52.284;9.160;2023-06-26T12:20:23;25.20;1.00
24207;DHT22;12351;52.284;9.160;2023-06-26T12:23:12;25.20;1.00
24207;DHT22;12351;52.284;9.160;2023-06-26T12:28:49;25.10;1.00
24207;DHT22;12351;52.284;9.160;2023-06-26T12:31:41;25.00;1.00
24207;DHT22;12351;52.284;9.160;2023-06-26T12:34:31;25.10;1.00
24207;DHT22;12351;52.284;9.160;2023-06-26T12:37:18;25.10;1.00
24207;DHT22;12351;52.284;9.160;2023-06-26T12:40:05;25.10;1.00
24207;DHT22;12351;52.284;9.160;2023-06-26T12:42:53;25.10;1.00
24207;DHT22;12351;52.284;9.160;2023-06-26T12:45:42;25.20;1.00
24207;DHT22;12351;52.284;9.160;2023-06-26T12:51:19;25.20;1.00
24207;DHT22;12351;52.284;9.160;2023-06-26T12:54:05;25.20;1.00
24207;DHT22;12351;52.284;9.160;2023-06-26T12:56:53;25.20;1.00
24207;DHT22;12351;52.284;9.160;2023-06-26T12:59:41;25.40;1.00
24207;DHT22;12351;52.284;9.160;2023-06-26T13:02:28;25.40;1.00
24207;DHT22;12351;52.284;9.160;2023-06-26T13:05:16;25.50;1.00
24207;DHT22;12351;52.284;9.160;2023-06-26T13:08:04;25.40;1.00
24207;DHT22;12351;52.284;9.160;2023-06-26T13:10:51;25.50;1.00
24207;DHT22;12351;52.284;9.160;2023-06-26T13:13:39;25.60;1.00
24207;DHT22;12351;52.284;9.160;2023-06-26T13:16:26;25.50;1.00
24207;DHT22;12351;52.284;9.160;2023-06-26T13:19:14;25.70;1.00
24207;DHT22;12351;52.284;9.160;2023-06-26T13:22:02;25.80;1.00
24207;DHT22;12351;52.284;9.160;2023-06-26T13:24:50;25.80;1.00
24207;DHT22;12351;52.284;9.160;2023-06-26T13:27:37;25.90;1.00
24207;DHT22;12351;52.284;9.160;2023-06-26T13:30:24;25.90;1.00
24207;DHT22;12351;52.284;9.160;2023-06-26T13:33:12;25.90;1.00
24207;DHT22;12351;52.284;9.160;2023-06-26T13:35:59;25.90;1.00
24207;DHT22;12351;52.284;9.160;2023-06-26T13:38:48;25.70;1.00
24207;DHT22;12351;52.284;9.160;2023-06-26T13:41:37;25.70;1.00
24207;DHT22;12351;52.284;9.160;2023-06-26T13:44:23;25.70;1.00
24207;DHT22;12351;52.284;9.160;2023-06-26T13:47:13;25.80;1.00
24207;DHT22;12351;52.284;9.160;2023-06-26T13:50:01;25.70;1.00
24207;DHT22;12351;52.284;9.160;2023-06-26T13:52:48;25.60;1.00
24207;DHT22;12351;52.284;9.160;2023-06-26T13:55:36;25.70;1.00
24207;DHT22;12351;52.284;9.160;2023-06-26T13:58:23;25.70;1.00
24207;DHT22;12351;52.284;9.160;2023-06-26T14:01:12;25.90;1.00
24207;DHT22;12351;52.284;9.160;2023-06-26T14:03:59;26.10;1.00
24207;DHT22;12351;52.284;9.160;2023-06-26T14:06:46;26.20;1.00
24207;DHT22;12351;52.284;9.160;2023-06-26T14:09:34;26.30;1.00
24207;DHT22;12351;52.284;9.160;2023-06-26T14:12:21;26.20;1.00
24207;DHT22;12351;52.284;9.160;2023-06-26T14:15:10;26.20;1.00
24207;DHT22;12351;52.284;9.160;2023-06-26T14:17:59;26.30;1.00
24207;DHT22;12351;52.284;9.160;2023-06-26T14:20:47;26.40;1.00
24207;DHT22;12351;52.284;9.160;2023-06-26T14:23:35;26.40;1.00
24207;DHT22;12351;52.284;9.160;2023-06-26T14:26:23;26.40;1.00
24207;DHT22;12351;52.284;9.160;2023-06-26T14:29:11;26.40;1.00
24207;DHT22;12351;52.284;9.160;2023-06-26T14:31:59;26.30;1.00
24207;DHT22;12351;52.284;9.160;2023-06-26T14:34:48;26.20;1.00
24207;DHT22;12351;52.284;9.160;2023-06-26T14:37:36;26.10;1.00
24207;DHT22;12351;52.284;9.160;2023-06-26T14:40:24;26.10;1.00
24207;DHT22;12351;52.284;9.160;2023-06-26T14:43:12;25.90;1.00
24207;DHT22;12351;52.284;9.160;2023-06-26T14:45:59;26.10;1.00
24207;DHT22;12351;52.284;9.160;2023-06-26T14:48:48;26.10;1.00
24207;DHT22;12351;52.284;9.160;2023-06-26T14:51:37;26.10;1.00
24207;DHT22;12351;52.284;9.160;2023-06-26T14:54:27;26.10;1.00
24207;DHT22;12351;52.284;9.160;2023-06-26T14:57:14;26.10;1.00
24207;DHT22;12351;52.284;9.160;2023-06-26T15:00:04;26.30;1.00
24207;DHT22;12351;52.284;9.160;2023-06-26T15:02:52;26.20;1.00
24207;DHT22;12351;52.284;9.160;2023-06-26T15:05:40;26.00;1.00
24207;DHT22;12351;52.284;9.160;2023-06-26T15:08:27;26.10;1.00
24207;DHT22;12351;52.284;9.160;2023-06-26T15:11:15;26.10;1.00
24207;DHT22;12351;52.284;9.160;2023-06-26T15:14:02;26.00;1.00
24207;DHT22;12351;52.284;9.160;2023-06-26T15:16:49;25.80;1.00
24207;DHT22;12351;52.284;9.160;2023-06-26T15:19:37;25.70;1.00
24207;DHT22;12351;52.284;9.160;2023-06-26T15:22:26;25.70;1.00
24207;DHT22;12351;52.284;9.160;2023-06-26T15:25:14;25.70;1.00
24207;DHT22;12351;52.284;9.160;2023-06-26T15:28:02;25.80;1.00
24207;DHT22;12351;52.284;9.160;2023-06-26T15:30:49;25.80;1.00
24207;DHT22;12351;52.284;9.160;2023-06-26T15:33:37;25.70;1.00
24207;DHT22;12351;52.284;9.160;2023-06-26T15:36:26;25.70;1.00
24207;DHT22;12351;52.284;9.160;2023-06-26T15:39:15;25.60;1.00
24207;DHT22;12351;52.284;9.160;2023-06-26T15:42:03;25.50;1.00
24207;DHT22;12351;52.284;9.160;2023-06-26T15:44:51;25.60;1.00
24207;DHT22;12351;52.284;9.160;2023-06-26T15:47:38;25.50;1.00
24207;DHT22;12351;52.284;9.160;2023-06-26T15:50:25;25.40;1.00
24207;DHT22;12351;52.284;9.160;2023-06-26T15:53:16;25.10;1.00
24207;DHT22;12351;52.284;9.160;2023-06-26T15:56:07;25.30;1.00
24207;DHT22;12351;52.284;9.160;2023-06-26T15:58:54;25.60;1.00
24207;DHT22;12351;52.284;9.160;2023-06-26T16:01:41;25.40;1.00
24207;DHT22;12351;52.284;9.160;2023-06-26T16:04:30;25.40;1.00
24207;DHT22;12351;52.284;9.160;2023-06-26T16:07:19;25.30;1.00
24207;DHT22;12351;52.284;9.160;2023-06-26T16:10:06;25.20;1.00
24207;DHT22;12351;52.284;9.160;2023-06-26T16:12:54;25.30;1.00
24207;DHT22;12351;52.284;9.160;2023-06-26T16:15:41;25.40;1.00
24207;DHT22;12351;52.284;9.160;2023-06-26T16:18:28;25.30;1.00
24207;DHT22;12351;52.284;9.160;2023-06-26T16:21:16;24.90;1.00
24207;DHT22;12351;52.284;9.160;2023-06-26T16:24:04;25.00;1.00
24207;DHT22;12351;52.284;9.160;2023-06-26T16:26:53;25.20;1.00
24207;DHT22;12351;52.284;9.160;2023-06-26T16:29:41;25.00;1.00
24207;DHT22;12351;52.284;9.160;2023-06-26T16:32:27;25.10;1.00
24207;DHT22;12351;52.284;9.160;2023-06-26T16:35:15;25.10;1.00
24207;DHT22;12351;52.284;9.160;2023-06-26T16:38:04;25.00;1.00
24207;DHT22;12351;52.284;9.160;2023-06-26T16:40:52;25.10;1.00
24207;DHT22;12351;52.284;9.160;2023-06-26T16:43:40;25.10;1.00
24207;DHT22;12351;52.284;9.160;2023-06-26T16:46:26;25.20;1.00
24207;DHT22;12351;52.284;9.160;2023-06-26T16:49:14;25.30;1.00
24207;DHT22;12351;52.284;9.160;2023-06-26T16:52:01;24.90;1.00
24207;DHT22;12351;52.284;9.160;2023-06-26T16:54:48;24.90;1.00
24207;DHT22;12351;52.284;9.160;2023-06-26T16:57:36;24.90;1.00
24207;DHT22;12351;52.284;9.160;2023-06-26T17:00:23;24.90;1.00
24207;DHT22;12351;52.284;9.160;2023-06-26T17:03:12;24.90;1.00
24207;DHT22;12351;52.284;9.160;2023-06-26T17:06:02;24.90;1.00
24207;DHT22;12351;52.284;9.160;2023-06-26T17:08:50;24.70;1.00
24207;DHT22;12351;52.284;9.160;2023-06-26T17:11:37;24.60;1.00
24207;DHT22;12351;52.284;9.160;2023-06-26T17:14:25;24.50;1.00
24207;DHT22;12351;52.284;9.160;2023-06-26T17:17:13;24.50;1.00
24207;DHT22;12351;52.284;9.160;2023-06-26T17:20:03;24.50;1.00
24207;DHT22;12351;52.284;9.160;2023-06-26T17:22:52;24.50;1.00
24207;DHT22;12351;52.284;9.160;2023-06-26T17:25:39;24.50;1.00
24207;DHT22;12351;52.284;9.160;2023-06-26T17:28:26;24.50;1.00
24207;DHT22;12351;52.284;9.160;2023-06-26T17:31:14;24.30;1.00
24207;DHT22;12351;52.284;9.160;2023-06-26T17:34:01;24.20;1.00
24207;DHT22;12351;52.284;9.160;2023-06-26T17:36:49;24.20;1.00
24207;DHT22;12351;52.284;9.160;2023-06-26T17:39:37;24.10;1.00
24207;DHT22;12351;52.284;9.160;2023-06-26T17:42:23;24.10;1.00
24207;DHT22;12351;52.284;9.160;2023-06-26T17:45:11;24.10;1.00
24207;DHT22;12351;52.284;9.160;2023-06-26T17:47:59;24.00;1.00
24207;DHT22;12351;52.284;9.160;2023-06-26T17:50:47;23.80;1.00
24207;DHT22;12351;52.284;9.160;2023-06-26T17:53:36;23.80;1.00
24207;DHT22;12351;52.284;9.160;2023-06-26T17:56:24;23.90;1.00
24207;DHT22;12351;52.284;9.160;2023-06-26T17:59:12;23.80;1.00
24207;DHT22;12351;52.284;9.160;2023-06-26T18:01:59;23.80;1.00
24207;DHT22;12351;52.284;9.160;2023-06-26T18:04:47;23.90;1.00
24207;DHT22;12351;52.284;9.160;2023-06-26T18:07:34;24.10;1.00
24207;DHT22;12351;52.284;9.160;2023-06-26T18:10:21;24.00;1.00
24207;DHT22;12351;52.284;9.160;2023-06-26T18:13:09;24.10;1.00
24207;DHT22;12351;52.284;9.160;2023-06-26T18:15:57;24.20;1.00
24207;DHT22;12351;52.284;9.160;2023-06-26T18:18:45;24.20;1.00
24207;DHT22;12351;52.284;9.160;2023-06-26T18:21:33;24.30;1.00
24207;DHT22;12351;52.284;9.160;2023-06-26T18:24:20;24.20;1.00
24207;DHT22;12351;52.284;9.160;2023-06-26T18:27:08;24.20;1.00
24207;DHT22;12351;52.284;9.160;2023-06-26T18:29:55;24.30;1.00
24207;DHT22;12351;52.284;9.160;2023-06-26T18:32:43;24.20;1.00
24207;DHT22;12351;52.284;9.160;2023-06-26T18:35:31;24.20;1.00